首页
METAR-TAF:

METAR-TAF

机场 :

Arlington Municipal Airport

阿灵顿, 华盛顿, 美国

纬度: 48-10N, 经度: 122-10W, 海拔: 42米

当前天气观测

该预报发布于1小时和4分钟前的09:56 UTC
风速14节,风向东南
温度 12°C
湿度 67%
气压 1015 hPa
能見度: 16.1公里
少量云层高于4400英尺

METAR: KAWO 150956Z AUTO 13014KT 10SM FEW044 12/06 A2998 RMK AO2 SLP157 T01170061 PNO $

时间: 03:00 (11:00 UTC)


TAF: 丢失

超过4000个机场的气象观测和天气预报(METAR&TAF报告)。

可查询的气象台以黄色和红色小点在地图上表示。

将鼠标移到小点上方,可查看气象台名称。

然后点击查看天气观测和预报。

如需切换地图:点击带黑十字的绿色按钮放大地图;点击带横线的绿色按钮缩小地图;或者点击绿色箭头查看邻近地区的地图。


METAR-TAF: